Saga Sapphire — 9HOF8 — position and weather

sailwx.info

Track history (hours):
 
Tides and Currents Weather Stations Pressure Air Temp Water Temp Dewpoint Dewpoint Depression Visibility Wind Speed Wind Dir Waves Ship Positions

Saga Sapphire

Last reported at 2016-Jun-30 07:33 UTC. Time now 2016-Jun-30 10:23 UTC.
Position N 51°07' E 001°19'.

Length 200 m; draft 8.5 m.

Type: Ship. MMSI: 256208000.

Date/timePositionNaut miles runAvg speedWind from/ knotsBaromVisibWave heightAir tempDewpointWater temp
2016-Jun-30 07:33N 51°07' E 001°19'6 5.9
2016-Jun-30 06:34N 51°08' E 001°28'1111.1
2016-Jun-30 05:33N 51°16' E 001°40'1616.5
2016-Jun-30 04:33N 51°31' E 001°51'1717.1
2016-Jun-30 03:33N 51°45' E 002°07'12014.5
2016-Jun-29 19:15N 53°41' E 003°00'1014.3
2016-Jun-29 18:33N 53°50' E 003°08'  
2016-Jun-25 20:26N 59°60' E 004°37'3913.7
2016-Jun-25 17:33N 59°21' E 004°40'1413.7
2016-Jun-25 16:33N 59°09' E 004°53'1313.3
2016-Jun-25 15:33N 59°05' E 005°18'9 9.2
2016-Jun-25 14:33N 59°03' E 005°36'6 6.1
2016-Jun-25 13:33N 58°58' E 005°44'0 0.0
2016-Jun-25 12:33N 58°58' E 005°44'0 0.0
2016-Jun-25 11:33N 58°58' E 005°44'0 0.0
2016-Jun-25 10:33N 58°58' E 005°44'0 0.0
2016-Jun-25 09:33N 58°58' E 005°44'0 0.0
2016-Jun-25 08:33N 58°58' E 005°44'0 0.0
2016-Jun-25 07:33N 58°58' E 005°44'0 0.0
2016-Jun-25 06:33N 58°58' E 005°44'1 1.0
2016-Jun-25 05:33N 58°59' E 005°43'5 5.3
2016-Jun-25 04:33N 58°57' E 005°33'1010.2
2016-Jun-25 03:33N 58°48' E 005°24'1312.7
2016-Jun-25 02:33N 58°36' E 005°21'1612.5
2016-Jun-25 01:16N 58°20' E 005°28'39013.6
2016-Jun-23 20:29N 52°05' E 002°17'1414.1
2016-Jun-23 19:32N 51°52' E 002°12'1414.7
2016-Jun-23 18:33N 51°40' E 002°00'1515.0
2016-Jun-23 17:33N 51°27' E 001°47'1616.0
2016-Jun-23 16:34N 51°12' E 001°37'1212.2
2016-Jun-23 15:33N 51°07' E 001°20'0 0.3
2016-Jun-23 14:12N 51°07' E 001°19'0 0.0
2016-Jun-23 13:31N 51°07' E 001°19'0 0.0
2016-Jun-23 11:07N 51°07' E 001°19'0 0.0
2016-Jun-23 10:30N 51°07' E 001°19'0 0.0
2016-Jun-23 08:33N 51°07' E 001°19'0 0.0
2016-Jun-23 07:31N 51°07' E 001°19'8 3.9
2016-Jun-23 05:33N 51°08' E 001°31'1111.2
2016-Jun-23 04:34N 51°15' E 001°45'1010.0
2016-Jun-23 03:33N 51°24' E 001°52'8 8.1
2016-Jun-23 02:33N 51°30' E 001°60'9 9.0
2016-Jun-23 01:34N 51°37' E 002°09'9 9.1
2016-Jun-23 00:33N 51°44' E 002°19'110 9.9
2016-Jun-22 13:23N 53°07' E 004°17'21 9.8
2016-Jun-22 11:13N 53°26' E 004°34'6 9.6
2016-Jun-22 10:33N 53°30' E 004°43'9 9.0
2016-Jun-22 09:33N 53°33' E 004°56'8 8.3
2016-Jun-22 08:33N 53°36' E 005°10'8 7.7
2016-Jun-22 07:32N 53°39' E 005°22'8 7.9
2016-Jun-22 06:33N 53°42' E 005°34'8 8.2
2016-Jun-22 05:33N 53°44' E 005°47'9 9.1
2016-Jun-22 04:33N 53°47' E 006°02'1010.0
2016-Jun-22 03:33N 53°50' E 006°18'1211.7
2016-Jun-22 02:33N 53°53' E 006°37'1312.6
2016-Jun-22 01:33N 53°56' E 006°58'1312.8
2016-Jun-22 00:32N 53°58' E 007°20'1110.8
2016-Jun-21 23:33N 53°60' E 007°38'1110.8
2016-Jun-21 22:33N 53°52' E 007°52'1111.0
2016-Jun-21 21:33N 53°48' E 008°08'1212.2
2016-Jun-21 20:33N 53°39' E 008°24'8 8.1
2016-Jun-21 19:33N 53°34' E 008°33'0 0.0
2016-Jun-21 18:33N 53°34' E 008°33'0 0.0
2016-Jun-21 17:33N 53°34' E 008°33'0 0.0
2016-Jun-21 16:33N 53°34' E 008°33'0 0.0
2016-Jun-21 15:33N 53°34' E 008°33'0 0.0
2016-Jun-21 14:33N 53°34' E 008°33'0 0.0
2016-Jun-21 13:30N 53°34' E 008°33'0 0.0
2016-Jun-21 12:33N 53°34' E 008°33'0 0.0
2016-Jun-21 11:24N 53°34' E 008°33'0 0.0
2016-Jun-21 10:33N 53°34' E 008°33'0 0.0
2016-Jun-21 09:30N 53°34' E 008°33'0 0.0
2016-Jun-21 08:33N 53°34' E 008°33'0 0.0
2016-Jun-21 07:33N 53°34' E 008°33'1 1.2
2016-Jun-21 06:33N 53°35' E 008°32'2311.5
2016-Jun-21 04:33N 53°50' E 008°03'1010.5
2016-Jun-21 03:33N 53°53' E 007°46'1212.4
2016-Jun-21 02:34N 53°54' E 007°25'1515.2
2016-Jun-21 01:33N 53°50' E 007°00'813.4
2016-Jun-21 01:00N 53°48' E 006°48'818.2 250 / 131014.327.0 1.514.514.0
2016-Jun-21 00:33N 53°47' E 006°35'1615.8
2016-Jun-20 23:33N 53°42' E 006°09'1616.4
2016-Jun-20 22:33N 53°37' E 005°43'1717.2
2016-Jun-20 21:34N 53°32' E 005°15'3316.4
2016-Jun-20 19:33N 53°11' E 004°32'1817.6
2016-Jun-20 18:33N 52°56' E 004°18'1817.4
2016-Jun-20 17:33N 52°40' E 004°06'1313.3
2016-Jun-20 16:33N 52°30' E 004°20'9 9.0
2016-Jun-20 15:33N 52°28' E 004°34'0 0.0
2016-Jun-20 14:34N 52°28' E 004°34'0 0.0
2016-Jun-20 13:28N 52°28' E 004°34'0 0.0
2016-Jun-20 12:29N 52°28' E 004°34'0 0.0
2016-Jun-20 11:28N 52°28' E 004°34'0 0.0
2016-Jun-20 10:28N 52°28' E 004°34'0 0.0
2016-Jun-20 09:29N 52°28' E 004°34'0 0.0
2016-Jun-20 08:28N 52°28' E 004°34'  
Track history (hours):
 
Tides and Currents Weather Stations Pressure Air Temp Water Temp Dewpoint Dewpoint Depression Visibility Wind Speed Wind Dir Waves Ship Positions

Saga Sapphire

Last reported at 2016-Jun-30 07:33 UTC. Time now 2016-Jun-30 10:23 UTC.
Position N 51°07' E 001°19'.

Length 200 m; draft 8.5 m.

Type: Ship. MMSI: 256208000.

Date/timePositionNaut miles runAvg speedWind from/ knotsBaromVisibWave heightAir tempDewpointWater temp
2016-Jun-30 07:33N 51°07' E 001°19'6 5.9
2016-Jun-30 06:34N 51°08' E 001°28'1111.1
2016-Jun-30 05:33N 51°16' E 001°40'1616.5
2016-Jun-30 04:33N 51°31' E 001°51'1717.1
2016-Jun-30 03:33N 51°45' E 002°07'12014.5
2016-Jun-29 19:15N 53°41' E 003°00'1014.3
2016-Jun-29 18:33N 53°50' E 003°08'  
2016-Jun-25 20:26N 59°60' E 004°37'3913.7
2016-Jun-25 17:33N 59°21' E 004°40'1413.7
2016-Jun-25 16:33N 59°09' E 004°53'1313.3
2016-Jun-25 15:33N 59°05' E 005°18'9 9.2
2016-Jun-25 14:33N 59°03' E 005°36'6 6.1
2016-Jun-25 13:33N 58°58' E 005°44'0 0.0
2016-Jun-25 12:33N 58°58' E 005°44'0 0.0
2016-Jun-25 11:33N 58°58' E 005°44'0 0.0
2016-Jun-25 10:33N 58°58' E 005°44'0 0.0
2016-Jun-25 09:33N 58°58' E 005°44'0 0.0
2016-Jun-25 08:33N 58°58' E 005°44'0 0.0
2016-Jun-25 07:33N 58°58' E 005°44'0 0.0
2016-Jun-25 06:33N 58°58' E 005°44'1 1.0
2016-Jun-25 05:33N 58°59' E 005°43'5 5.3
2016-Jun-25 04:33N 58°57' E 005°33'1010.2
2016-Jun-25 03:33N 58°48' E 005°24'1312.7
2016-Jun-25 02:33N 58°36' E 005°21'1612.5
2016-Jun-25 01:16N 58°20' E 005°28'39013.6
2016-Jun-23 20:29N 52°05' E 002°17'1414.1
2016-Jun-23 19:32N 51°52' E 002°12'1414.7
2016-Jun-23 18:33N 51°40' E 002°00'1515.0
2016-Jun-23 17:33N 51°27' E 001°47'1616.0
2016-Jun-23 16:34N 51°12' E 001°37'1212.2
2016-Jun-23 15:33N 51°07' E 001°20'0 0.3
2016-Jun-23 14:12N 51°07' E 001°19'0 0.0
2016-Jun-23 13:31N 51°07' E 001°19'0 0.0
2016-Jun-23 11:07N 51°07' E 001°19'0 0.0
2016-Jun-23 10:30N 51°07' E 001°19'0 0.0
2016-Jun-23 08:33N 51°07' E 001°19'0 0.0
2016-Jun-23 07:31N 51°07' E 001°19'8 3.9
2016-Jun-23 05:33N 51°08' E 001°31'1111.2
2016-Jun-23 04:34N 51°15' E 001°45'1010.0
2016-Jun-23 03:33N 51°24' E 001°52'8 8.1
2016-Jun-23 02:33N 51°30' E 001°60'9 9.0
2016-Jun-23 01:34N 51°37' E 002°09'9 9.1
2016-Jun-23 00:33N 51°44' E 002°19'110 9.9
2016-Jun-22 13:23N 53°07' E 004°17'21 9.8
2016-Jun-22 11:13N 53°26' E 004°34'6 9.6
2016-Jun-22 10:33N 53°30' E 004°43'9 9.0
2016-Jun-22 09:33N 53°33' E 004°56'8 8.3
2016-Jun-22 08:33N 53°36' E 005°10'8 7.7
2016-Jun-22 07:32N 53°39' E 005°22'8 7.9
2016-Jun-22 06:33N 53°42' E 005°34'8 8.2
2016-Jun-22 05:33N 53°44' E 005°47'9 9.1
2016-Jun-22 04:33N 53°47' E 006°02'1010.0
2016-Jun-22 03:33N 53°50' E 006°18'1211.7
2016-Jun-22 02:33N 53°53' E 006°37'1312.6
2016-Jun-22 01:33N 53°56' E 006°58'1312.8
2016-Jun-22 00:32N 53°58' E 007°20'1110.8
2016-Jun-21 23:33N 53°60' E 007°38'1110.8
2016-Jun-21 22:33N 53°52' E 007°52'1111.0
2016-Jun-21 21:33N 53°48' E 008°08'1212.2
2016-Jun-21 20:33N 53°39' E 008°24'8 8.1
2016-Jun-21 19:33N 53°34' E 008°33'0 0.0
2016-Jun-21 18:33N 53°34' E 008°33'0 0.0
2016-Jun-21 17:33N 53°34' E 008°33'0 0.0
2016-Jun-21 16:33N 53°34' E 008°33'0 0.0
2016-Jun-21 15:33N 53°34' E 008°33'0 0.0
2016-Jun-21 14:33N 53°34' E 008°33'0 0.0
2016-Jun-21 13:30N 53°34' E 008°33'0 0.0
2016-Jun-21 12:33N 53°34' E 008°33'0 0.0
2016-Jun-21 11:24N 53°34' E 008°33'0 0.0
2016-Jun-21 10:33N 53°34' E 008°33'0 0.0
2016-Jun-21 09:30N 53°34' E 008°33'0 0.0
2016-Jun-21 08:33N 53°34' E 008°33'0 0.0
2016-Jun-21 07:33N 53°34' E 008°33'1 1.2
2016-Jun-21 06:33N 53°35' E 008°32'2311.5
2016-Jun-21 04:33N 53°50' E 008°03'1010.5
2016-Jun-21 03:33N 53°53' E 007°46'1212.4
2016-Jun-21 02:34N 53°54' E 007°25'1515.2
2016-Jun-21 01:33N 53°50' E 007°00'813.4
2016-Jun-21 01:00N 53°48' E 006°48'818.2 250 / 131014.327.0 1.514.514.0
2016-Jun-21 00:33N 53°47' E 006°35'1615.8
2016-Jun-20 23:33N 53°42' E 006°09'1616.4
2016-Jun-20 22:33N 53°37' E 005°43'1717.2
2016-Jun-20 21:34N 53°32' E 005°15'3316.4
2016-Jun-20 19:33N 53°11' E 004°32'1817.6
2016-Jun-20 18:33N 52°56' E 004°18'1817.4
2016-Jun-20 17:33N 52°40' E 004°06'1313.3
2016-Jun-20 16:33N 52°30' E 004°20'9 9.0
2016-Jun-20 15:33N 52°28' E 004°34'0 0.0
2016-Jun-20 14:34N 52°28' E 004°34'0 0.0
2016-Jun-20 13:28N 52°28' E 004°34'0 0.0
2016-Jun-20 12:29N 52°28' E 004°34'0 0.0
2016-Jun-20 11:28N 52°28' E 004°34'0 0.0
2016-Jun-20 10:28N 52°28' E 004°34'0 0.0
2016-Jun-20 09:29N 52°28' E 004°34'0 0.0
2016-Jun-20 08:28N 52°28' E 004°34'  

Dump ship's entire track history